createdAt,value
2018-09-15T14:52:52.310Z,100360.00
2018-09-15T14:55:22.704Z,100356.00
2018-09-15T14:57:53.210Z,100353.00
2018-09-15T15:00:23.568Z,100355.00
2018-09-15T15:02:56.605Z,100355.00
2018-09-15T15:05:27.011Z,100358.00
2018-09-15T15:07:57.661Z,100356.00
2018-09-15T15:10:28.238Z,100351.00
2018-09-15T15:12:58.601Z,100352.00
2018-09-15T15:15:29.221Z,100347.00
2018-09-15T15:17:59.565Z,100348.00
2018-09-15T15:20:29.921Z,100346.00
2018-09-15T15:23:00.262Z,100347.00
2018-09-15T15:25:30.875Z,100347.00
2018-09-15T15:28:01.418Z,100343.00
2018-09-15T15:30:31.785Z,100339.00
2018-09-15T15:33:02.129Z,100338.00
2018-09-15T15:35:32.519Z,100334.00
2018-09-15T15:38:03.316Z,100331.00
2018-09-15T15:40:33.676Z,100328.00
2018-09-15T15:43:04.284Z,100331.00
2018-09-15T15:45:34.645Z,100327.00
2018-09-15T15:48:05.229Z,100330.00
2018-09-15T15:50:35.591Z,100323.00
2018-09-15T15:53:05.933Z,100328.00
2018-09-15T15:55:36.312Z,100331.00
2018-09-15T15:58:07.161Z,100336.00
2018-09-15T16:00:37.528Z,100332.00
2018-09-15T16:03:07.870Z,100333.00
2018-09-15T16:05:38.497Z,100340.00
2018-09-15T16:08:08.839Z,100339.00
2018-09-15T16:10:39.203Z,100345.00
2018-09-15T16:13:09.793Z,100348.00
2018-09-15T16:15:40.122Z,100355.00
2018-09-15T16:18:10.441Z,100349.00
2018-09-15T16:20:40.779Z,100350.00
2018-09-15T16:23:11.078Z,100348.00
2018-09-15T16:25:41.727Z,100345.00
2018-09-15T16:28:12.450Z,100343.00
2018-09-15T16:30:42.846Z,100350.00
2018-09-15T16:33:13.309Z,100344.00
2018-09-15T16:35:43.652Z,100348.00
2018-09-15T16:38:14.337Z,100340.00
2018-09-15T16:40:45.051Z,100344.00
2018-09-15T16:43:15.729Z,100345.00
2018-09-15T16:45:46.052Z,100345.00
2018-09-15T16:48:16.616Z,100347.00
2018-09-15T16:50:46.952Z,100348.00
2018-09-15T16:53:17.260Z,100350.00
2018-09-15T16:55:47.596Z,100351.00
2018-09-15T16:58:18.166Z,100356.00
2018-09-15T17:00:48.562Z,100357.00
2018-09-15T17:03:19.201Z,100365.00
2018-09-15T17:05:49.920Z,100372.00
2018-09-15T17:08:20.240Z,100372.00
2018-09-15T17:10:50.855Z,100372.00
2018-09-15T17:13:21.219Z,100371.00
2018-09-15T17:15:51.602Z,100369.00
2018-09-15T17:18:22.195Z,100375.00
2018-09-15T17:20:53.033Z,100379.00
2018-09-15T17:23:23.425Z,100384.00
2018-09-15T17:25:53.792Z,100382.00
2018-09-15T17:28:24.369Z,100378.00
2018-09-15T17:30:54.836Z,100379.00
2018-09-15T17:33:25.434Z,100384.00
2018-09-15T17:35:56.902Z,100383.00
2018-09-15T17:38:27.236Z,100388.00
2018-09-15T17:40:57.852Z,100397.00
2018-09-15T17:43:28.197Z,100402.00
2018-09-15T17:45:58.570Z,100399.00
2018-09-15T17:48:28.914Z,100403.00
2018-09-15T17:50:59.301Z,100407.00
2018-09-15T17:53:29.897Z,100407.00
2018-09-15T17:56:00.272Z,100409.00
2018-09-15T17:58:30.862Z,100415.00
2018-09-15T18:01:01.236Z,100422.00
2018-09-15T18:03:31.832Z,100425.00
2018-09-15T18:06:02.186Z,100421.00
2018-09-15T18:08:32.533Z,100419.00
2018-09-15T18:11:03.149Z,100425.00
2018-09-15T18:13:33.480Z,100422.00
2018-09-15T18:16:03.812Z,100427.00
2018-09-15T18:18:34.124Z,100429.00
2018-09-15T18:21:04.453Z,100435.00
2018-09-15T18:23:34.777Z,100439.00
2018-09-15T18:26:05.116Z,100440.00
2018-09-15T18:28:35.438Z,100440.00
2018-09-15T18:31:05.758Z,100442.00
2018-09-15T18:33:36.090Z,100446.00
2018-09-15T18:36:06.833Z,100449.00
2018-09-15T18:38:37.529Z,100443.00
2018-09-15T18:41:08.408Z,100447.00
2018-09-15T18:43:38.768Z,100449.00
2018-09-15T18:46:09.102Z,100453.00
2018-09-15T18:48:39.442Z,100455.00
2018-09-15T18:51:10.408Z,100456.00
2018-09-15T18:53:40.754Z,100457.00
2018-09-15T18:56:11.093Z,100463.00
2018-09-15T18:58:41.409Z,100463.00
2018-09-15T19:01:11.773Z,100469.00
2018-09-15T19:03:42.363Z,100465.00
2018-09-15T19:06:12.738Z,100465.00
2018-09-15T19:08:43.083Z,100469.00
2018-09-15T19:11:13.521Z,100469.00
2018-09-15T19:13:43.870Z,100472.00
2018-09-15T19:16:14.298Z,100472.00
2018-09-15T19:18:45.017Z,100474.00
2018-09-15T19:21:15.403Z,100476.00
2018-09-15T19:23:45.908Z,100473.00
2018-09-15T19:26:16.514Z,100475.00
2018-09-15T19:28:47.230Z,100479.00
2018-09-15T19:31:17.557Z,100478.00
2018-09-15T19:33:47.888Z,100479.00
2018-09-15T19:36:18.297Z,100482.00
2018-09-15T19:38:48.893Z,100483.00
2018-09-15T19:41:19.246Z,100485.00
2018-09-15T19:43:49.842Z,100488.00
2018-09-15T19:46:20.218Z,100489.00
2018-09-15T19:48:50.785Z,100497.00
2018-09-15T19:51:21.194Z,100495.00
2018-09-15T19:53:51.680Z,100490.00
2018-09-15T19:56:22.041Z,100490.00
2018-09-15T19:58:52.375Z,100498.00
2018-09-15T20:01:22.741Z,100494.00
2018-09-15T20:03:53.076Z,100496.00
2018-09-15T20:06:23.427Z,100496.00
2018-09-15T20:08:53.753Z,100495.00
2018-09-15T20:11:24.421Z,100498.00
2018-09-15T20:13:54.778Z,100497.00
2018-09-15T20:16:23.502Z,100498.00
2018-09-15T20:18:52.499Z,100504.00
2018-09-15T20:21:21.194Z,100500.00
2018-09-15T20:23:51.555Z,100499.00
2018-09-15T20:26:21.874Z,100501.00
2018-09-15T20:28:52.260Z,100498.00
2018-09-15T20:31:22.842Z,100502.00
2018-09-15T20:33:53.443Z,100501.00
2018-09-15T20:36:23.767Z,100505.00
2018-09-15T20:38:54.103Z,100505.00
2018-09-15T20:41:24.455Z,100505.00
2018-09-15T20:43:54.785Z,100503.00
2018-09-15T20:46:25.373Z,100503.00
2018-09-15T20:48:55.760Z,100505.00
2018-09-15T20:51:26.250Z,100499.00
2018-09-15T20:53:56.610Z,100505.00
2018-09-15T20:56:26.925Z,100512.00
2018-09-15T20:58:57.529Z,100509.00
2018-09-15T21:01:27.865Z,100507.00
2018-09-15T21:03:58.194Z,100511.00
2018-09-15T21:06:28.517Z,100511.00
2018-09-15T21:08:58.901Z,100511.00
2018-09-15T21:11:29.497Z,100514.00
2018-09-15T21:14:00.165Z,100513.00
2018-09-15T21:16:30.749Z,100508.00
2018-09-15T21:19:01.192Z,100512.00
2018-09-15T21:21:31.805Z,100514.00
2018-09-15T21:24:02.211Z,100515.00
2018-09-15T21:26:32.534Z,100515.00
2018-09-15T21:29:02.929Z,100517.00
2018-09-15T21:31:33.568Z,100522.00
2018-09-15T21:34:04.539Z,100523.00
2018-09-15T21:36:35.142Z,100523.00
2018-09-15T21:39:09.505Z,100520.00
2018-09-15T21:41:40.300Z,100525.00
2018-09-15T21:44:10.925Z,100527.00
2018-09-15T21:46:41.288Z,100532.00
2018-09-15T21:49:11.931Z,100530.00
2018-09-15T21:51:42.272Z,100531.00
2018-09-15T21:54:12.633Z,100527.00
2018-09-15T21:56:43.244Z,100523.00
2018-09-15T21:59:13.616Z,100529.00
2018-09-15T22:01:43.990Z,100519.00
2018-09-15T22:04:19.714Z,100523.00
2018-09-15T22:06:51.862Z,100528.00
2018-09-15T22:09:22.703Z,100528.00
2018-09-15T22:11:53.258Z,100529.00
2018-09-15T22:14:23.622Z,100527.00
2018-09-15T22:16:54.222Z,100528.00
2018-09-15T22:19:24.590Z,100531.00
2018-09-15T22:21:55.185Z,100533.00
2018-09-15T22:24:25.815Z,100532.00
2018-09-15T22:26:56.645Z,100526.00
2018-09-15T22:29:27.026Z,100529.00
2018-09-15T22:31:57.632Z,100531.00
2018-09-15T22:34:28.006Z,100532.00
2018-09-15T22:36:58.361Z,100527.00
2018-09-15T22:39:29.191Z,100525.00
2018-09-15T22:41:59.806Z,100526.00
2018-09-15T22:44:30.196Z,100535.00
2018-09-15T22:47:00.860Z,100527.00
2018-09-15T22:49:31.485Z,100528.00
2018-09-15T22:52:01.847Z,100523.00
2018-09-15T22:54:32.205Z,100524.00
2018-09-15T22:57:02.559Z,100521.00
2018-09-15T22:59:32.953Z,100517.00
2018-09-15T23:02:03.317Z,100518.00
2018-09-15T23:04:33.673Z,100518.00
2018-09-15T23:07:04.341Z,100521.00
2018-09-15T23:09:34.712Z,100522.00
2018-09-15T23:12:05.126Z,100523.00
2018-09-15T23:14:35.514Z,100517.00
2018-09-15T23:17:06.166Z,100523.00
2018-09-15T23:19:36.842Z,100522.00
2018-09-15T23:22:08.729Z,100517.00
2018-09-15T23:24:39.101Z,100507.00
2018-09-15T23:27:09.465Z,100506.00
2018-09-15T23:29:40.090Z,100506.00
2018-09-15T23:32:10.702Z,100507.00
2018-09-15T23:34:41.325Z,100503.00
2018-09-15T23:37:11.941Z,100503.00
2018-09-15T23:39:42.408Z,100506.00
2018-09-15T23:42:18.490Z,100508.00
2018-09-15T23:44:48.855Z,100506.00
2018-09-15T23:47:19.214Z,100507.00
2018-09-15T23:49:49.849Z,100502.00
2018-09-15T23:52:20.209Z,100502.00
2018-09-15T23:54:50.829Z,100497.00
2018-09-15T23:57:21.624Z,100496.00
2018-09-15T23:59:51.973Z,100499.00
